KBTM/BTM METAR and TAF weather

Enter ICAO airport designator
Station Type Date Time Source
KBTM METAR 2022/01/27 22:53 UTC NOAA

KBTM 272253Z AUTO 00000KT 10SM CLR M04/M12 A3043 RMK AO2 SLP382 T10391117


Station Type Date Time Source
KBTM Decoded METAR 2022/01/27 22:53 UTC NOAA

BERT MOONEY AIRPORT, MT, United States (KBTM) 45-58N 112-30W 1688M
Jan 27, 2022 - 05:53 PM EST / 2022.01.27 2253 UTC
Wind: Calm:0
Visibility: 10 mile(s):0
Sky conditions: clear
Temperature: 25.0 F (-3.9 C)
Dew Point: 10.9 F (-11.7 C)
Relative Humidity: 54%
Pressure (altimeter): 30.43 in. Hg (1030 hPa)
ob: KBTM 272253Z AUTO 00000KT 10SM CLR M04/M12 A3043 RMK AO2 SLP382 T10391117
cycle: 23

Station Type Date Time Source
KBTM TAF 2022/01/27 18:22 UTC NOAA

TAF KBTM 271720Z 2718/2818 VRB03KT P6SM SKC

Example: see airport list